sensor_id;sensor_type;location;lat;lon;timestamp;temperature;humidity
75819;DHT22;64453;51.944;9.796;2022-12-07T00:01:44;8.60;60.80
75819;DHT22;64453;51.944;9.796;2022-12-07T00:04:14;8.30;61.40
75819;DHT22;64453;51.944;9.796;2022-12-07T00:06:51;8.30;61.80
75819;DHT22;64453;51.944;9.796;2022-12-07T00:09:19;8.50;61.00
75819;DHT22;64453;51.944;9.796;2022-12-07T00:11:50;8.60;61.20
75819;DHT22;64453;51.944;9.796;2022-12-07T00:14:18;8.40;60.70
75819;DHT22;64453;51.944;9.796;2022-12-07T00:16:46;8.50;60.80
75819;DHT22;64453;51.944;9.796;2022-12-07T00:19:17;8.50;61.00
75819;DHT22;64453;51.944;9.796;2022-12-07T00:21:46;8.30;61.30
75819;DHT22;64453;51.944;9.796;2022-12-07T00:24:13;8.50;61.10
75819;DHT22;64453;51.944;9.796;2022-12-07T00:26:41;8.60;60.30
75819;DHT22;64453;51.944;9.796;2022-12-07T00:29:14;8.70;60.00
75819;DHT22;64453;51.944;9.796;2022-12-07T00:31:47;8.80;59.80
75819;DHT22;64453;51.944;9.796;2022-12-07T00:34:15;8.70;60.00
75819;DHT22;64453;51.944;9.796;2022-12-07T00:36:43;8.60;60.40
75819;DHT22;64453;51.944;9.796;2022-12-07T00:39:12;8.60;60.40
75819;DHT22;64453;51.944;9.796;2022-12-07T00:41:46;8.10;62.00
75819;DHT22;64453;51.944;9.796;2022-12-07T00:44:13;8.10;62.10
75819;DHT22;64453;51.944;9.796;2022-12-07T00:46:45;7.90;62.80
75819;DHT22;64453;51.944;9.796;2022-12-07T00:49:12;7.70;63.40
75819;DHT22;64453;51.944;9.796;2022-12-07T00:51:39;7.60;64.20
75819;DHT22;64453;51.944;9.796;2022-12-07T00:54:08;7.90;63.30
75819;DHT22;64453;51.944;9.796;2022-12-07T00:56:37;7.80;63.20
75819;DHT22;64453;51.944;9.796;2022-12-07T00:59:12;7.80;63.10
75819;DHT22;64453;51.944;9.796;2022-12-07T01:01:43;8.00;62.90
75819;DHT22;64453;51.944;9.796;2022-12-07T01:04:13;7.50;64.80
75819;DHT22;64453;51.944;9.796;2022-12-07T01:06:40;7.70;64.40
75819;DHT22;64453;51.944;9.796;2022-12-07T01:09:11;7.80;64.00
75819;DHT22;64453;51.944;9.796;2022-12-07T01:11:38;8.00;64.30
75819;DHT22;64453;51.944;9.796;2022-12-07T01:14:05;8.00;63.30
75819;DHT22;64453;51.944;9.796;2022-12-07T01:16:32;8.30;62.20
75819;DHT22;64453;51.944;9.796;2022-12-07T01:19:00;8.20;62.20
75819;DHT22;64453;51.944;9.796;2022-12-07T01:21:31;8.30;62.50
75819;DHT22;64453;51.944;9.796;2022-12-07T01:24:01;8.30;62.20
75819;DHT22;64453;51.944;9.796;2022-12-07T01:26:29;8.10;63.00
75819;DHT22;64453;51.944;9.796;2022-12-07T01:28:56;8.20;62.80
75819;DHT22;64453;51.944;9.796;2022-12-07T01:31:25;8.00;63.30
75819;DHT22;64453;51.944;9.796;2022-12-07T01:33:55;8.00;62.90
75819;DHT22;64453;51.944;9.796;2022-12-07T01:36:25;8.00;63.10
75819;DHT22;64453;51.944;9.796;2022-12-07T01:38:55;7.90;63.10
75819;DHT22;64453;51.944;9.796;2022-12-07T01:41:25;8.00;62.80
75819;DHT22;64453;51.944;9.796;2022-12-07T01:44:17;7.90;63.10
75819;DHT22;64453;51.944;9.796;2022-12-07T01:46:46;8.10;62.40
75819;DHT22;64453;51.944;9.796;2022-12-07T01:49:28;7.80;63.60
75819;DHT22;64453;51.944;9.796;2022-12-07T01:52:07;7.80;64.00
75819;DHT22;64453;51.944;9.796;2022-12-07T01:54:39;8.00;63.70
75819;DHT22;64453;51.944;9.796;2022-12-07T01:57:08;7.90;63.50
75819;DHT22;64453;51.944;9.796;2022-12-07T01:59:37;7.70;64.20
75819;DHT22;64453;51.944;9.796;2022-12-07T02:02:09;7.60;64.80
75819;DHT22;64453;51.944;9.796;2022-12-07T02:04:44;7.90;64.40
75819;DHT22;64453;51.944;9.796;2022-12-07T02:07:11;8.20;64.00
75819;DHT22;64453;51.944;9.796;2022-12-07T02:09:39;8.20;63.00
75819;DHT22;64453;51.944;9.796;2022-12-07T02:12:06;8.30;62.90
75819;DHT22;64453;51.944;9.796;2022-12-07T02:14:33;8.50;61.90
75819;DHT22;64453;51.944;9.796;2022-12-07T02:17:08;8.70;61.20
75819;DHT22;64453;51.944;9.796;2022-12-07T02:20:08;8.80;60.90
75819;DHT22;64453;51.944;9.796;2022-12-07T02:23:21;8.50;62.00
75819;DHT22;64453;51.944;9.796;2022-12-07T02:29:33;8.30;63.10
75819;DHT22;64453;51.944;9.796;2022-12-07T02:32:10;8.40;62.90
75819;DHT22;64453;51.944;9.796;2022-12-07T02:34:46;8.50;62.30
75819;DHT22;64453;51.944;9.796;2022-12-07T02:37:26;8.50;62.30
75819;DHT22;64453;51.944;9.796;2022-12-07T02:40:00;8.30;63.50
75819;DHT22;64453;51.944;9.796;2022-12-07T02:42:33;8.10;64.30
75819;DHT22;64453;51.944;9.796;2022-12-07T02:45:06;8.40;63.00
75819;DHT22;64453;51.944;9.796;2022-12-07T02:47:35;8.60;62.20
75819;DHT22;64453;51.944;9.796;2022-12-07T02:50:04;8.40;62.50
75819;DHT22;64453;51.944;9.796;2022-12-07T02:52:32;8.40;63.00
75819;DHT22;64453;51.944;9.796;2022-12-07T02:54:59;8.40;62.90
75819;DHT22;64453;51.944;9.796;2022-12-07T02:57:38;8.70;61.90
75819;DHT22;64453;51.944;9.796;2022-12-07T03:00:13;8.50;62.50
75819;DHT22;64453;51.944;9.796;2022-12-07T03:02:50;8.40;63.00
75819;DHT22;64453;51.944;9.796;2022-12-07T03:05:48;8.50;62.40
75819;DHT22;64453;51.944;9.796;2022-12-07T03:08:34;8.60;61.90
75819;DHT22;64453;51.944;9.796;2022-12-07T03:11:06;8.60;62.10
75819;DHT22;64453;51.944;9.796;2022-12-07T03:13:41;8.70;61.90
75819;DHT22;64453;51.944;9.796;2022-12-07T03:16:17;8.80;61.50
75819;DHT22;64453;51.944;9.796;2022-12-07T03:18:49;8.90;61.20
75819;DHT22;64453;51.944;9.796;2022-12-07T03:21:19;8.90;61.00
75819;DHT22;64453;51.944;9.796;2022-12-07T03:23:52;8.90;60.90
75819;DHT22;64453;51.944;9.796;2022-12-07T03:26:24;9.00;60.90
75819;DHT22;64453;51.944;9.796;2022-12-07T03:28:58;8.80;62.30
75819;DHT22;64453;51.944;9.796;2022-12-07T03:31:36;8.90;61.00
75819;DHT22;64453;51.944;9.796;2022-12-07T03:34:07;9.00;60.50
75819;DHT22;64453;51.944;9.796;2022-12-07T03:36:39;9.10;60.00
75819;DHT22;64453;51.944;9.796;2022-12-07T03:39:17;9.10;59.90
75819;DHT22;64453;51.944;9.796;2022-12-07T03:41:48;8.90;60.10
75819;DHT22;64453;51.944;9.796;2022-12-07T03:44:16;8.70;61.20
75819;DHT22;64453;51.944;9.796;2022-12-07T03:46:50;8.50;62.30
75819;DHT22;64453;51.944;9.796;2022-12-07T03:49:25;7.90;63.70
75819;DHT22;64453;51.944;9.796;2022-12-07T03:52:02;8.30;63.40
75819;DHT22;64453;51.944;9.796;2022-12-07T03:54:43;8.70;62.30
75819;DHT22;64453;51.944;9.796;2022-12-07T03:57:12;9.00;60.30
75819;DHT22;64453;51.944;9.796;2022-12-07T03:59:40;9.20;59.80
75819;DHT22;64453;51.944;9.796;2022-12-07T04:02:11;9.20;60.00
75819;DHT22;64453;51.944;9.796;2022-12-07T04:04:39;9.30;59.60
75819;DHT22;64453;51.944;9.796;2022-12-07T04:07:06;9.40;59.40
75819;DHT22;64453;51.944;9.796;2022-12-07T04:09:33;9.30;59.50
75819;DHT22;64453;51.944;9.796;2022-12-07T04:12:00;9.20;59.80
75819;DHT22;64453;51.944;9.796;2022-12-07T04:14:27;9.20;60.10
75819;DHT22;64453;51.944;9.796;2022-12-07T04:16:57;9.20;60.20
75819;DHT22;64453;51.944;9.796;2022-12-07T04:19:27;9.30;59.80
75819;DHT22;64453;51.944;9.796;2022-12-07T04:21:56;9.30;59.60
75819;DHT22;64453;51.944;9.796;2022-12-07T04:24:25;9.30;59.60
75819;DHT22;64453;51.944;9.796;2022-12-07T04:26:52;9.30;59.50
75819;DHT22;64453;51.944;9.796;2022-12-07T04:29:19;9.30;59.50
75819;DHT22;64453;51.944;9.796;2022-12-07T04:31:47;9.40;59.60
75819;DHT22;64453;51.944;9.796;2022-12-07T04:34:14;9.40;59.60
75819;DHT22;64453;51.944;9.796;2022-12-07T04:36:44;9.40;59.50
75819;DHT22;64453;51.944;9.796;2022-12-07T04:39:18;9.30;59.50
75819;DHT22;64453;51.944;9.796;2022-12-07T04:41:47;9.10;60.10
75819;DHT22;64453;51.944;9.796;2022-12-07T04:44:15;9.10;60.20
75819;DHT22;64453;51.944;9.796;2022-12-07T04:46:43;9.20;59.80
75819;DHT22;64453;51.944;9.796;2022-12-07T04:49:10;9.30;59.50
75819;DHT22;64453;51.944;9.796;2022-12-07T04:51:38;9.40;59.20
75819;DHT22;64453;51.944;9.796;2022-12-07T04:54:07;9.40;59.40
75819;DHT22;64453;51.944;9.796;2022-12-07T04:56:34;9.40;59.40
75819;DHT22;64453;51.944;9.796;2022-12-07T04:59:02;9.40;59.30
75819;DHT22;64453;51.944;9.796;2022-12-07T05:01:30;9.30;59.20
75819;DHT22;64453;51.944;9.796;2022-12-07T05:03:58;9.40;59.00
75819;DHT22;64453;51.944;9.796;2022-12-07T05:06:26;9.40;59.10
75819;DHT22;64453;51.944;9.796;2022-12-07T05:08:53;9.40;58.90
75819;DHT22;64453;51.944;9.796;2022-12-07T05:11:21;9.30;58.80
75819;DHT22;64453;51.944;9.796;2022-12-07T05:14:11;9.10;59.40
75819;DHT22;64453;51.944;9.796;2022-12-07T05:16:39;9.00;59.60
75819;DHT22;64453;51.944;9.796;2022-12-07T05:19:07;9.10;59.50
75819;DHT22;64453;51.944;9.796;2022-12-07T05:21:35;9.00;59.80
75819;DHT22;64453;51.944;9.796;2022-12-07T05:24:04;8.90;60.20
75819;DHT22;64453;51.944;9.796;2022-12-07T05:26:33;8.90;60.30
75819;DHT22;64453;51.944;9.796;2022-12-07T05:29:00;8.90;59.70
75819;DHT22;64453;51.944;9.796;2022-12-07T05:31:27;8.50;61.10
75819;DHT22;64453;51.944;9.796;2022-12-07T05:33:55;8.50;61.20
75819;DHT22;64453;51.944;9.796;2022-12-07T05:36:22;8.20;62.20
75819;DHT22;64453;51.944;9.796;2022-12-07T05:38:49;8.00;62.30
75819;DHT22;64453;51.944;9.796;2022-12-07T05:41:18;7.50;64.10
75819;DHT22;64453;51.944;9.796;2022-12-07T05:44:04;7.10;66.20
75819;DHT22;64453;51.944;9.796;2022-12-07T05:46:31;7.40;65.70
75819;DHT22;64453;51.944;9.796;2022-12-07T05:48:59;7.60;65.20
75819;DHT22;64453;51.944;9.796;2022-12-07T05:51:26;7.60;65.20
75819;DHT22;64453;51.944;9.796;2022-12-07T05:53:53;7.50;65.70
75819;DHT22;64453;51.944;9.796;2022-12-07T05:56:20;7.60;65.50
75819;DHT22;64453;51.944;9.796;2022-12-07T05:58:48;8.10;63.70
75819;DHT22;64453;51.944;9.796;2022-12-07T06:01:34;7.80;64.40
75819;DHT22;64453;51.944;9.796;2022-12-07T06:04:01;7.70;65.00
75819;DHT22;64453;51.944;9.796;2022-12-07T06:06:28;7.90;64.40
75819;DHT22;64453;51.944;9.796;2022-12-07T06:08:55;8.00;63.70
75819;DHT22;64453;51.944;9.796;2022-12-07T06:11:22;8.20;62.70
75819;DHT22;64453;51.944;9.796;2022-12-07T06:14:08;8.20;62.80
75819;DHT22;64453;51.944;9.796;2022-12-07T06:16:36;8.20;62.90
75819;DHT22;64453;51.944;9.796;2022-12-07T06:19:04;8.30;61.80
75819;DHT22;64453;51.944;9.796;2022-12-07T06:21:32;8.30;61.90
75819;DHT22;64453;51.944;9.796;2022-12-07T06:23:59;8.30;62.30
75819;DHT22;64453;51.944;9.796;2022-12-07T06:26:26;8.00;62.60
75819;DHT22;64453;51.944;9.796;2022-12-07T06:28:53;8.00;63.80
75819;DHT22;64453;51.944;9.796;2022-12-07T06:31:20;8.50;61.60
75819;DHT22;64453;51.944;9.796;2022-12-07T06:33:49;8.30;62.10
75819;DHT22;64453;51.944;9.796;2022-12-07T06:36:16;8.20;63.00
75819;DHT22;64453;51.944;9.796;2022-12-07T06:38:44;8.30;61.90
75819;DHT22;64453;51.944;9.796;2022-12-07T06:41:10;8.30;62.60
75819;DHT22;64453;51.944;9.796;2022-12-07T06:43:37;8.20;62.00
75819;DHT22;64453;51.944;9.796;2022-12-07T06:46:05;7.60;63.70
75819;DHT22;64453;51.944;9.796;2022-12-07T06:48:32;7.60;65.20
75819;DHT22;64453;51.944;9.796;2022-12-07T06:51:00;7.60;65.20
75819;DHT22;64453;51.944;9.796;2022-12-07T06:53:27;8.00;63.20
75819;DHT22;64453;51.944;9.796;2022-12-07T06:55:54;7.80;64.20
75819;DHT22;64453;51.944;9.796;2022-12-07T06:58:21;7.70;64.30
75819;DHT22;64453;51.944;9.796;2022-12-07T07:00:49;7.50;65.40
75819;DHT22;64453;51.944;9.796;2022-12-07T07:03:16;8.00;64.30
75819;DHT22;64453;51.944;9.796;2022-12-07T07:05:43;7.50;65.40
75819;DHT22;64453;51.944;9.796;2022-12-07T07:08:12;7.90;64.30
75819;DHT22;64453;51.944;9.796;2022-12-07T07:10:40;7.70;64.30
75819;DHT22;64453;51.944;9.796;2022-12-07T07:13:08;7.60;65.20
75819;DHT22;64453;51.944;9.796;2022-12-07T07:15:37;7.50;65.90
75819;DHT22;64453;51.944;9.796;2022-12-07T07:18:04;7.70;65.50
75819;DHT22;64453;51.944;9.796;2022-12-07T07:20:31;7.30;66.40
75819;DHT22;64453;51.944;9.796;2022-12-07T07:22:58;7.30;67.40
75819;DHT22;64453;51.944;9.796;2022-12-07T07:25:27;7.30;67.60
75819;DHT22;64453;51.944;9.796;2022-12-07T07:27:54;7.40;67.60
75819;DHT22;64453;51.944;9.796;2022-12-07T07:30:21;7.80;65.80
75819;DHT22;64453;51.944;9.796;2022-12-07T07:32:48;8.10;64.20
75819;DHT22;64453;51.944;9.796;2022-12-07T07:35:15;8.30;63.70
75819;DHT22;64453;51.944;9.796;2022-12-07T07:37:42;7.90;65.20
75819;DHT22;64453;51.944;9.796;2022-12-07T07:40:10;8.20;63.90
75819;DHT22;64453;51.944;9.796;2022-12-07T07:42:38;7.90;64.40
75819;DHT22;64453;51.944;9.796;2022-12-07T07:45:06;8.20;64.00
75819;DHT22;64453;51.944;9.796;2022-12-07T07:47:34;8.40;63.30
75819;DHT22;64453;51.944;9.796;2022-12-07T07:50:01;8.70;62.00
75819;DHT22;64453;51.944;9.796;2022-12-07T07:52:31;8.70;62.10
75819;DHT22;64453;51.944;9.796;2022-12-07T07:54:58;8.00;63.80
75819;DHT22;64453;51.944;9.796;2022-12-07T07:57:25;8.40;62.80
75819;DHT22;64453;51.944;9.796;2022-12-07T07:59:54;8.20;63.50
75819;DHT22;64453;51.944;9.796;2022-12-07T08:02:21;8.10;63.70
75819;DHT22;64453;51.944;9.796;2022-12-07T08:04:48;8.20;63.30
75819;DHT22;64453;51.944;9.796;2022-12-07T08:07:16;7.50;65.40
75819;DHT22;64453;51.944;9.796;2022-12-07T08:09:43;7.60;65.30
75819;DHT22;64453;51.944;9.796;2022-12-07T08:12:10;7.80;64.80
75819;DHT22;64453;51.944;9.796;2022-12-07T08:14:37;8.10;63.60
75819;DHT22;64453;51.944;9.796;2022-12-07T08:17:05;8.30;62.90
75819;DHT22;64453;51.944;9.796;2022-12-07T08:19:32;8.60;61.90
75819;DHT22;64453;51.944;9.796;2022-12-07T08:22:00;8.70;61.30
75819;DHT22;64453;51.944;9.796;2022-12-07T08:24:27;8.70;60.60
75819;DHT22;64453;51.944;9.796;2022-12-07T08:26:54;8.00;63.30
75819;DHT22;64453;51.944;9.796;2022-12-07T08:29:21;8.40;62.40
75819;DHT22;64453;51.944;9.796;2022-12-07T08:31:48;8.40;61.40
75819;DHT22;64453;51.944;9.796;2022-12-07T08:34:16;8.40;62.00
75819;DHT22;64453;51.944;9.796;2022-12-07T08:36:43;8.90;60.80
75819;DHT22;64453;51.944;9.796;2022-12-07T08:39:10;9.00;59.90
75819;DHT22;64453;51.944;9.796;2022-12-07T08:41:37;9.10;59.70
75819;DHT22;64453;51.944;9.796;2022-12-07T08:44:04;9.00;59.80
75819;DHT22;64453;51.944;9.796;2022-12-07T08:46:35;9.10;60.30
75819;DHT22;64453;51.944;9.796;2022-12-07T08:49:06;9.00;60.40
75819;DHT22;64453;51.944;9.796;2022-12-07T08:51:37;8.90;60.20
75819;DHT22;64453;51.944;9.796;2022-12-07T08:54:06;8.90;60.00
75819;DHT22;64453;51.944;9.796;2022-12-07T08:56:35;8.40;61.70
75819;DHT22;64453;51.944;9.796;2022-12-07T08:59:03;8.20;62.10
75819;DHT22;64453;51.944;9.796;2022-12-07T09:01:31;8.20;62.30
75819;DHT22;64453;51.944;9.796;2022-12-07T09:03:59;8.20;62.50
75819;DHT22;64453;51.944;9.796;2022-12-07T09:06:26;8.10;62.80
75819;DHT22;64453;51.944;9.796;2022-12-07T09:08:58;7.90;64.00
75819;DHT22;64453;51.944;9.796;2022-12-07T09:11:27;7.80;64.10
75819;DHT22;64453;51.944;9.796;2022-12-07T09:13:54;7.80;64.30
75819;DHT22;64453;51.944;9.796;2022-12-07T09:16:21;8.00;63.90
75819;DHT22;64453;51.944;9.796;2022-12-07T09:18:48;8.20;63.20
75819;DHT22;64453;51.944;9.796;2022-12-07T09:21:15;8.00;63.50
75819;DHT22;64453;51.944;9.796;2022-12-07T09:23:43;8.00;63.90
75819;DHT22;64453;51.944;9.796;2022-12-07T09:26:12;8.40;62.50
75819;DHT22;64453;51.944;9.796;2022-12-07T09:28:40;8.40;63.20
75819;DHT22;64453;51.944;9.796;2022-12-07T09:31:07;8.20;63.60
75819;DHT22;64453;51.944;9.796;2022-12-07T09:33:34;8.20;64.10
75819;DHT22;64453;51.944;9.796;2022-12-07T09:36:02;8.60;61.80
75819;DHT22;64453;51.944;9.796;2022-12-07T09:38:30;8.30;62.70
75819;DHT22;64453;51.944;9.796;2022-12-07T09:41:04;8.40;61.90
75819;DHT22;64453;51.944;9.796;2022-12-07T09:43:35;8.60;61.30
75819;DHT22;64453;51.944;9.796;2022-12-07T09:46:03;8.00;62.90
75819;DHT22;64453;51.944;9.796;2022-12-07T09:48:33;7.80;64.10
75819;DHT22;64453;51.944;9.796;2022-12-07T09:51:13;7.70;63.40
75819;DHT22;64453;51.944;9.796;2022-12-07T09:53:41;7.90;64.00
75819;DHT22;64453;51.944;9.796;2022-12-07T09:56:11;7.70;63.30
75819;DHT22;64453;51.944;9.796;2022-12-07T09:58:41;7.70;64.40
75819;DHT22;64453;51.944;9.796;2022-12-07T10:01:12;7.80;63.60
75819;DHT22;64453;51.944;9.796;2022-12-07T10:03:47;7.80;63.30
75819;DHT22;64453;51.944;9.796;2022-12-07T10:06:16;7.40;65.80
75819;DHT22;64453;51.944;9.796;2022-12-07T10:08:43;8.00;64.30
75819;DHT22;64453;51.944;9.796;2022-12-07T10:11:11;8.40;62.40
75819;DHT22;64453;51.944;9.796;2022-12-07T10:13:43;8.50;62.00
75819;DHT22;64453;51.944;9.796;2022-12-07T10:16:37;8.00;63.80
75819;DHT22;64453;51.944;9.796;2022-12-07T10:19:20;7.80;64.20
75819;DHT22;64453;51.944;9.796;2022-12-07T10:22:04;7.90;64.90
75819;DHT22;64453;51.944;9.796;2022-12-07T10:24:34;8.10;64.10
75819;DHT22;64453;51.944;9.796;2022-12-07T10:27:03;8.10;63.60
75819;DHT22;64453;51.944;9.796;2022-12-07T10:29:33;8.10;63.70
75819;DHT22;64453;51.944;9.796;2022-12-07T10:32:03;8.50;62.00
75819;DHT22;64453;51.944;9.796;2022-12-07T10:34:34;8.60;62.10
75819;DHT22;64453;51.944;9.796;2022-12-07T10:37:17;8.70;61.60
75819;DHT22;64453;51.944;9.796;2022-12-07T10:39:47;8.80;61.20
75819;DHT22;64453;51.944;9.796;2022-12-07T10:42:17;8.40;62.20
75819;DHT22;64453;51.944;9.796;2022-12-07T10:44:47;8.40;62.00
75819;DHT22;64453;51.944;9.796;2022-12-07T10:47:29;8.30;63.00
75819;DHT22;64453;51.944;9.796;2022-12-07T10:50:17;8.10;64.10
75819;DHT22;64453;51.944;9.796;2022-12-07T10:53:03;8.70;61.20
75819;DHT22;64453;51.944;9.796;2022-12-07T10:55:49;8.50;62.90
75819;DHT22;64453;51.944;9.796;2022-12-07T10:58:35;8.00;63.30
75819;DHT22;64453;51.944;9.796;2022-12-07T11:01:15;8.50;62.10
75819;DHT22;64453;51.944;9.796;2022-12-07T11:03:55;8.40;62.90
75819;DHT22;64453;51.944;9.796;2022-12-07T11:06:36;8.60;62.00
75819;DHT22;64453;51.944;9.796;2022-12-07T11:09:38;8.90;61.50
75819;DHT22;64453;51.944;9.796;2022-12-07T11:12:23;9.00;60.60
75819;DHT22;64453;51.944;9.796;2022-12-07T11:14:57;8.80;59.60
75819;DHT22;64453;51.944;9.796;2022-12-07T11:17:34;8.60;60.30
75819;DHT22;64453;51.944;9.796;2022-12-07T11:20:15;8.30;60.80
75819;DHT22;64453;51.944;9.796;2022-12-07T11:22:59;8.30;61.60
75819;DHT22;64453;51.944;9.796;2022-12-07T11:25:32;8.60;60.50
75819;DHT22;64453;51.944;9.796;2022-12-07T11:28:15;8.50;60.00
75819;DHT22;64453;51.944;9.796;2022-12-07T11:30:52;8.50;60.60
75819;DHT22;64453;51.944;9.796;2022-12-07T11:33:31;8.10;61.70
75819;DHT22;64453;51.944;9.796;2022-12-07T11:36:13;8.30;61.30
75819;DHT22;64453;51.944;9.796;2022-12-07T11:38:53;8.60;60.30
75819;DHT22;64453;51.944;9.796;2022-12-07T11:41:27;8.40;61.20
75819;DHT22;64453;51.944;9.796;2022-12-07T11:44:02;8.60;60.80
75819;DHT22;64453;51.944;9.796;2022-12-07T11:46:42;8.70;59.70
75819;DHT22;64453;51.944;9.796;2022-12-07T11:49:19;8.90;59.50
75819;DHT22;64453;51.944;9.796;2022-12-07T11:51:50;9.00;59.10
75819;DHT22;64453;51.944;9.796;2022-12-07T11:54:21;9.30;58.00
75819;DHT22;64453;51.944;9.796;2022-12-07T11:56:51;9.20;58.80
75819;DHT22;64453;51.944;9.796;2022-12-07T11:59:25;9.00;58.90
75819;DHT22;64453;51.944;9.796;2022-12-07T12:02:03;9.10;59.40
75819;DHT22;64453;51.944;9.796;2022-12-07T12:04:51;9.10;58.80
75819;DHT22;64453;51.944;9.796;2022-12-07T12:07:23;8.40;60.20
75819;DHT22;64453;51.944;9.796;2022-12-07T12:09:54;8.60;60.80
75819;DHT22;64453;51.944;9.796;2022-12-07T12:12:45;8.40;61.80
75819;DHT22;64453;51.944;9.796;2022-12-07T12:15:47;8.40;59.80
75819;DHT22;64453;51.944;9.796;2022-12-07T12:18:34;8.50;60.20
75819;DHT22;64453;51.944;9.796;2022-12-07T12:21:13;8.70;59.80
75819;DHT22;64453;51.944;9.796;2022-12-07T12:23:45;8.90;59.00
75819;DHT22;64453;51.944;9.796;2022-12-07T12:26:17;9.20;58.50
75819;DHT22;64453;51.944;9.796;2022-12-07T12:28:52;9.00;58.10
75819;DHT22;64453;51.944;9.796;2022-12-07T12:31:46;9.00;58.40
75819;DHT22;64453;51.944;9.796;2022-12-07T12:34:33;8.70;60.00
75819;DHT22;64453;51.944;9.796;2022-12-07T12:37:45;8.90;59.20
75819;DHT22;64453;51.944;9.796;2022-12-07T12:40:43;9.20;58.90
75819;DHT22;64453;51.944;9.796;2022-12-07T12:46:46;9.00;59.30
75819;DHT22;64453;51.944;9.796;2022-12-07T12:49:42;8.50;60.70
75819;DHT22;64453;51.944;9.796;2022-12-07T12:55:26;8.80;59.50
75819;DHT22;64453;51.944;9.796;2022-12-07T12:58:40;8.90;59.20
75819;DHT22;64453;51.944;9.796;2022-12-07T13:01:40;8.70;59.40
75819;DHT22;64453;51.944;9.796;2022-12-07T13:04:28;8.70;60.40
75819;DHT22;64453;51.944;9.796;2022-12-07T13:07:02;8.90;59.10
75819;DHT22;64453;51.944;9.796;2022-12-07T13:09:33;8.90;58.90
75819;DHT22;64453;51.944;9.796;2022-12-07T13:12:04;9.20;58.20
75819;DHT22;64453;51.944;9.796;2022-12-07T13:14:51;8.40;59.10
75819;DHT22;64453;51.944;9.796;2022-12-07T13:17:57;8.30;59.10
75819;DHT22;64453;51.944;9.796;2022-12-07T13:20:46;7.80;62.50
75819;DHT22;64453;51.944;9.796;2022-12-07T13:23:19;8.30;60.40
75819;DHT22;64453;51.944;9.796;2022-12-07T13:26:09;8.50;59.40
75819;DHT22;64453;51.944;9.796;2022-12-07T13:28:42;8.40;59.50
75819;DHT22;64453;51.944;9.796;2022-12-07T13:31:20;8.70;58.70
75819;DHT22;64453;51.944;9.796;2022-12-07T13:33:52;8.80;58.70
75819;DHT22;64453;51.944;9.796;2022-12-07T13:36:22;9.00;58.60
75819;DHT22;64453;51.944;9.796;2022-12-07T13:38:55;9.00;58.60
75819;DHT22;64453;51.944;9.796;2022-12-07T13:41:25;8.10;60.80
75819;DHT22;64453;51.944;9.796;2022-12-07T13:44:01;8.40;59.80
75819;DHT22;64453;51.944;9.796;2022-12-07T13:46:44;8.20;60.30
75819;DHT22;64453;51.944;9.796;2022-12-07T13:49:22;8.70;59.80
75819;DHT22;64453;51.944;9.796;2022-12-07T13:51:51;8.70;59.40
75819;DHT22;64453;51.944;9.796;2022-12-07T13:54:21;8.80;59.20
75819;DHT22;64453;51.944;9.796;2022-12-07T13:56:52;9.20;58.00
75819;DHT22;64453;51.944;9.796;2022-12-07T13:59:20;8.70;59.00
75819;DHT22;64453;51.944;9.796;2022-12-07T14:01:49;8.60;59.60
75819;DHT22;64453;51.944;9.796;2022-12-07T14:04:29;8.90;58.30
75819;DHT22;64453;51.944;9.796;2022-12-07T14:06:59;8.90;58.30
75819;DHT22;64453;51.944;9.796;2022-12-07T14:09:28;8.90;58.50
75819;DHT22;64453;51.944;9.796;2022-12-07T14:11:57;8.80;57.80
75819;DHT22;64453;51.944;9.796;2022-12-07T14:14:27;8.60;58.50
75819;DHT22;64453;51.944;9.796;2022-12-07T14:16:58;8.70;58.00
75819;DHT22;64453;51.944;9.796;2022-12-07T14:19:45;8.30;59.00
75819;DHT22;64453;51.944;9.796;2022-12-07T14:22:27;8.30;59.10
75819;DHT22;64453;51.944;9.796;2022-12-07T14:25:19;8.70;58.30
75819;DHT22;64453;51.944;9.796;2022-12-07T14:27:54;8.90;57.70
75819;DHT22;64453;51.944;9.796;2022-12-07T14:30:25;8.80;57.80
75819;DHT22;64453;51.944;9.796;2022-12-07T14:32:55;8.70;58.40
75819;DHT22;64453;51.944;9.796;2022-12-07T14:35:24;9.10;57.50
75819;DHT22;64453;51.944;9.796;2022-12-07T14:37:51;9.40;56.40
75819;DHT22;64453;51.944;9.796;2022-12-07T14:40:21;9.60;55.90
75819;DHT22;64453;51.944;9.796;2022-12-07T14:42:53;9.30;56.40
75819;DHT22;64453;51.944;9.796;2022-12-07T14:45:23;9.40;56.20
75819;DHT22;64453;51.944;9.796;2022-12-07T14:47:50;8.80;57.30
75819;DHT22;64453;51.944;9.796;2022-12-07T14:50:18;8.60;57.60
75819;DHT22;64453;51.944;9.796;2022-12-07T14:52:49;8.70;57.60
75819;DHT22;64453;51.944;9.796;2022-12-07T14:55:23;8.90;57.40
75819;DHT22;64453;51.944;9.796;2022-12-07T14:57:52;8.60;57.40
75819;DHT22;64453;51.944;9.796;2022-12-07T15:00:21;8.10;59.20
75819;DHT22;64453;51.944;9.796;2022-12-07T15:02:50;8.40;58.70
75819;DHT22;64453;51.944;9.796;2022-12-07T15:05:18;8.60;58.20
75819;DHT22;64453;51.944;9.796;2022-12-07T15:07:46;8.60;58.50
75819;DHT22;64453;51.944;9.796;2022-12-07T15:10:16;8.60;57.90
75819;DHT22;64453;51.944;9.796;2022-12-07T15:12:45;8.70;58.40
75819;DHT22;64453;51.944;9.796;2022-12-07T15:15:14;9.10;57.40
75819;DHT22;64453;51.944;9.796;2022-12-07T15:17:42;8.80;58.00
75819;DHT22;64453;51.944;9.796;2022-12-07T15:20:12;8.80;57.80
75819;DHT22;64453;51.944;9.796;2022-12-07T15:22:40;8.60;58.40
75819;DHT22;64453;51.944;9.796;2022-12-07T15:25:08;8.80;58.10
75819;DHT22;64453;51.944;9.796;2022-12-07T15:27:35;9.10;57.50
75819;DHT22;64453;51.944;9.796;2022-12-07T15:30:03;9.10;57.00
75819;DHT22;64453;51.944;9.796;2022-12-07T15:32:35;9.30;56.80
75819;DHT22;64453;51.944;9.796;2022-12-07T15:35:02;9.30;56.40
75819;DHT22;64453;51.944;9.796;2022-12-07T15:37:30;9.30;56.90
75819;DHT22;64453;51.944;9.796;2022-12-07T15:39:57;9.20;57.70
75819;DHT22;64453;51.944;9.796;2022-12-07T15:42:25;9.00;57.90
75819;DHT22;64453;51.944;9.796;2022-12-07T15:44:52;8.50;58.60
75819;DHT22;64453;51.944;9.796;2022-12-07T15:47:42;8.40;59.90
75819;DHT22;64453;51.944;9.796;2022-12-07T15:50:14;8.20;60.60
75819;DHT22;64453;51.944;9.796;2022-12-07T15:52:42;8.30;60.40
75819;DHT22;64453;51.944;9.796;2022-12-07T15:55:09;8.50;59.70
75819;DHT22;64453;51.944;9.796;2022-12-07T15:57:37;8.30;59.90
75819;DHT22;64453;51.944;9.796;2022-12-07T16:00:08;8.20;60.80
75819;DHT22;64453;51.944;9.796;2022-12-07T16:02:37;8.50;59.70
75819;DHT22;64453;51.944;9.796;2022-12-07T16:05:06;8.60;59.40
75819;DHT22;64453;51.944;9.796;2022-12-07T16:07:33;8.70;59.10
75819;DHT22;64453;51.944;9.796;2022-12-07T16:10:00;8.60;59.40
75819;DHT22;64453;51.944;9.796;2022-12-07T16:12:28;8.60;59.10
75819;DHT22;64453;51.944;9.796;2022-12-07T16:14:55;8.80;59.00
75819;DHT22;64453;51.944;9.796;2022-12-07T16:17:21;8.90;58.80
75819;DHT22;64453;51.944;9.796;2022-12-07T16:19:48;9.10;58.00
75819;DHT22;64453;51.944;9.796;2022-12-07T16:22:17;9.20;57.70
75819;DHT22;64453;51.944;9.796;2022-12-07T16:24:44;8.70;59.40
75819;DHT22;64453;51.944;9.796;2022-12-07T16:27:11;8.80;58.40